sensor_id;sensor_type;location;lat;lon;timestamp;temperature;humidity
11989;DHT22;6054;50.966;7.094;2024-02-26T00:01:32;15.60;44.00
11989;DHT22;6054;50.966;7.094;2024-02-26T00:03:59;15.60;44.30
11989;DHT22;6054;50.966;7.094;2024-02-26T00:06:28;15.70;44.30
11989;DHT22;6054;50.966;7.094;2024-02-26T00:08:56;15.70;44.60
11989;DHT22;6054;50.966;7.094;2024-02-26T00:11:23;15.70;44.90
11989;DHT22;6054;50.966;7.094;2024-02-26T00:13:53;15.70;44.90
11989;DHT22;6054;50.966;7.094;2024-02-26T00:16:21;15.70;45.20
11989;DHT22;6054;50.966;7.094;2024-02-26T00:18:48;15.70;45.60
11989;DHT22;6054;50.966;7.094;2024-02-26T00:21:15;15.70;45.70
11989;DHT22;6054;50.966;7.094;2024-02-26T00:23:43;15.80;46.00
11989;DHT22;6054;50.966;7.094;2024-02-26T00:26:10;15.70;46.40
11989;DHT22;6054;50.966;7.094;2024-02-26T00:28:38;15.80;46.30
11989;DHT22;6054;50.966;7.094;2024-02-26T00:31:06;15.70;46.40
11989;DHT22;6054;50.966;7.094;2024-02-26T00:33:33;15.80;46.40
11989;DHT22;6054;50.966;7.094;2024-02-26T00:36:00;15.70;46.50
11989;DHT22;6054;50.966;7.094;2024-02-26T00:38:27;15.70;46.50
11989;DHT22;6054;50.966;7.094;2024-02-26T00:40:55;15.60;46.20
11989;DHT22;6054;50.966;7.094;2024-02-26T00:43:22;15.60;46.20
11989;DHT22;6054;50.966;7.094;2024-02-26T00:45:50;15.60;46.10
11989;DHT22;6054;50.966;7.094;2024-02-26T00:48:19;15.60;46.70
11989;DHT22;6054;50.966;7.094;2024-02-26T00:50:46;15.50;46.10
11989;DHT22;6054;50.966;7.094;2024-02-26T00:53:14;15.50;46.30
11989;DHT22;6054;50.966;7.094;2024-02-26T00:55:41;15.50;46.40
11989;DHT22;6054;50.966;7.094;2024-02-26T00:58:08;15.50;46.50
11989;DHT22;6054;50.966;7.094;2024-02-26T01:00:36;15.70;47.10
11989;DHT22;6054;50.966;7.094;2024-02-26T01:03:03;15.40;46.60
11989;DHT22;6054;50.966;7.094;2024-02-26T01:05:31;15.40;46.80
11989;DHT22;6054;50.966;7.094;2024-02-26T01:07:59;15.70;46.90
11989;DHT22;6054;50.966;7.094;2024-02-26T01:10:26;15.40;46.40
11989;DHT22;6054;50.966;7.094;2024-02-26T01:12:53;15.30;46.30
11989;DHT22;6054;50.966;7.094;2024-02-26T01:15:20;15.30;46.40
11989;DHT22;6054;50.966;7.094;2024-02-26T01:17:49;15.30;46.00
11989;DHT22;6054;50.966;7.094;2024-02-26T01:20:16;15.30;46.40
11989;DHT22;6054;50.966;7.094;2024-02-26T01:22:44;15.30;46.90
11989;DHT22;6054;50.966;7.094;2024-02-26T01:25:12;15.30;47.10
11989;DHT22;6054;50.966;7.094;2024-02-26T01:27:39;15.30;46.90
11989;DHT22;6054;50.966;7.094;2024-02-26T01:30:10;15.40;47.30
11989;DHT22;6054;50.966;7.094;2024-02-26T01:32:37;15.20;47.40
11989;DHT22;6054;50.966;7.094;2024-02-26T01:35:05;15.20;47.20
11989;DHT22;6054;50.966;7.094;2024-02-26T01:37:35;15.20;47.50
11989;DHT22;6054;50.966;7.094;2024-02-26T01:40:05;15.20;47.50
11989;DHT22;6054;50.966;7.094;2024-02-26T01:42:32;15.10;47.70
11989;DHT22;6054;50.966;7.094;2024-02-26T01:44:59;15.20;47.60
11989;DHT22;6054;50.966;7.094;2024-02-26T01:47:27;15.00;47.70
11989;DHT22;6054;50.966;7.094;2024-02-26T01:49:55;15.00;48.50
11989;DHT22;6054;50.966;7.094;2024-02-26T01:52:22;14.90;48.40
11989;DHT22;6054;50.966;7.094;2024-02-26T01:54:50;14.90;48.20
11989;DHT22;6054;50.966;7.094;2024-02-26T01:57:19;14.90;48.20
11989;DHT22;6054;50.966;7.094;2024-02-26T01:59:46;14.90;48.30
11989;DHT22;6054;50.966;7.094;2024-02-26T02:02:14;14.90;48.70
11989;DHT22;6054;50.966;7.094;2024-02-26T02:04:42;14.80;49.00
11989;DHT22;6054;50.966;7.094;2024-02-26T02:07:09;14.80;48.80
11989;DHT22;6054;50.966;7.094;2024-02-26T02:09:37;14.80;49.00
11989;DHT22;6054;50.966;7.094;2024-02-26T02:12:04;14.80;49.50
11989;DHT22;6054;50.966;7.094;2024-02-26T02:14:34;14.80;49.40
11989;DHT22;6054;50.966;7.094;2024-02-26T02:17:01;15.00;49.50
11989;DHT22;6054;50.966;7.094;2024-02-26T02:19:27;14.70;49.30
11989;DHT22;6054;50.966;7.094;2024-02-26T02:21:56;14.70;49.50
11989;DHT22;6054;50.966;7.094;2024-02-26T02:24:23;14.70;50.00
11989;DHT22;6054;50.966;7.094;2024-02-26T02:26:50;14.70;49.80
11989;DHT22;6054;50.966;7.094;2024-02-26T02:29:17;14.70;49.90
11989;DHT22;6054;50.966;7.094;2024-02-26T02:31:44;14.70;49.90
11989;DHT22;6054;50.966;7.094;2024-02-26T02:34:11;15.00;50.20
11989;DHT22;6054;50.966;7.094;2024-02-26T02:36:49;14.70;50.70
11989;DHT22;6054;50.966;7.094;2024-02-26T02:39:17;14.80;51.70
11989;DHT22;6054;50.966;7.094;2024-02-26T02:41:44;14.70;50.70
11989;DHT22;6054;50.966;7.094;2024-02-26T02:44:11;14.90;50.70
11989;DHT22;6054;50.966;7.094;2024-02-26T02:46:38;14.70;51.10
11989;DHT22;6054;50.966;7.094;2024-02-26T02:49:08;14.60;51.50
11989;DHT22;6054;50.966;7.094;2024-02-26T02:51:35;14.60;52.00
11989;DHT22;6054;50.966;7.094;2024-02-26T02:54:02;15.00;52.20
11989;DHT22;6054;50.966;7.094;2024-02-26T02:56:31;14.60;52.30
11989;DHT22;6054;50.966;7.094;2024-02-26T02:58:58;14.60;52.40
11989;DHT22;6054;50.966;7.094;2024-02-26T03:01:25;14.70;52.10
11989;DHT22;6054;50.966;7.094;2024-02-26T03:03:52;14.50;52.30
11989;DHT22;6054;50.966;7.094;2024-02-26T03:06:20;14.60;52.90
11989;DHT22;6054;50.966;7.094;2024-02-26T03:08:47;14.60;53.40
11989;DHT22;6054;50.966;7.094;2024-02-26T03:11:14;14.90;53.80
11989;DHT22;6054;50.966;7.094;2024-02-26T03:13:43;14.60;53.90
11989;DHT22;6054;50.966;7.094;2024-02-26T03:16:11;14.60;53.60
11989;DHT22;6054;50.966;7.094;2024-02-26T03:18:39;14.60;53.80
11989;DHT22;6054;50.966;7.094;2024-02-26T03:21:05;14.50;54.20
11989;DHT22;6054;50.966;7.094;2024-02-26T03:23:32;14.60;54.60
11989;DHT22;6054;50.966;7.094;2024-02-26T03:26:03;14.60;55.10
11989;DHT22;6054;50.966;7.094;2024-02-26T03:28:30;14.60;55.60
11989;DHT22;6054;50.966;7.094;2024-02-26T03:31:00;14.50;55.80
11989;DHT22;6054;50.966;7.094;2024-02-26T03:33:27;14.50;56.60
11989;DHT22;6054;50.966;7.094;2024-02-26T03:35:54;14.50;56.90
11989;DHT22;6054;50.966;7.094;2024-02-26T03:38:21;14.50;57.20
11989;DHT22;6054;50.966;7.094;2024-02-26T03:40:48;14.40;57.50
11989;DHT22;6054;50.966;7.094;2024-02-26T03:43:16;14.40;57.60
11989;DHT22;6054;50.966;7.094;2024-02-26T03:45:43;14.30;58.50
11989;DHT22;6054;50.966;7.094;2024-02-26T03:48:11;14.30;58.50
11989;DHT22;6054;50.966;7.094;2024-02-26T03:50:38;14.20;58.60
11989;DHT22;6054;50.966;7.094;2024-02-26T03:53:05;14.30;58.60
11989;DHT22;6054;50.966;7.094;2024-02-26T03:55:34;14.20;59.00
11989;DHT22;6054;50.966;7.094;2024-02-26T03:58:01;14.20;58.90
11989;DHT22;6054;50.966;7.094;2024-02-26T04:00:28;14.20;59.30
11989;DHT22;6054;50.966;7.094;2024-02-26T04:02:55;14.20;59.30
11989;DHT22;6054;50.966;7.094;2024-02-26T04:05:24;14.20;59.70
11989;DHT22;6054;50.966;7.094;2024-02-26T04:07:51;14.20;59.70
11989;DHT22;6054;50.966;7.094;2024-02-26T04:10:17;14.20;59.50
11989;DHT22;6054;50.966;7.094;2024-02-26T04:12:44;14.20;59.50
11989;DHT22;6054;50.966;7.094;2024-02-26T04:15:12;14.20;60.00
11989;DHT22;6054;50.966;7.094;2024-02-26T04:17:39;14.50;60.10
11989;DHT22;6054;50.966;7.094;2024-02-26T04:20:07;14.20;60.40
11989;DHT22;6054;50.966;7.094;2024-02-26T04:22:36;14.20;60.50
11989;DHT22;6054;50.966;7.094;2024-02-26T04:25:03;14.50;60.60
11989;DHT22;6054;50.966;7.094;2024-02-26T04:27:30;14.20;60.60
11989;DHT22;6054;50.966;7.094;2024-02-26T04:29:57;14.20;60.70
11989;DHT22;6054;50.966;7.094;2024-02-26T04:32:24;14.20;60.60
11989;DHT22;6054;50.966;7.094;2024-02-26T04:34:50;14.20;60.70
11989;DHT22;6054;50.966;7.094;2024-02-26T04:37:17;14.20;60.40
11989;DHT22;6054;50.966;7.094;2024-02-26T04:39:45;14.20;60.20
11989;DHT22;6054;50.966;7.094;2024-02-26T04:42:12;14.30;60.30
11989;DHT22;6054;50.966;7.094;2024-02-26T04:44:39;14.10;60.50
11989;DHT22;6054;50.966;7.094;2024-02-26T04:47:06;14.10;60.80
11989;DHT22;6054;50.966;7.094;2024-02-26T04:49:33;14.10;60.00
11989;DHT22;6054;50.966;7.094;2024-02-26T04:52:00;14.00;60.30
11989;DHT22;6054;50.966;7.094;2024-02-26T04:54:27;14.10;60.70
11989;DHT22;6054;50.966;7.094;2024-02-26T04:56:55;14.00;60.60
11989;DHT22;6054;50.966;7.094;2024-02-26T04:59:22;14.00;60.80
11989;DHT22;6054;50.966;7.094;2024-02-26T05:01:48;14.00;59.80
11989;DHT22;6054;50.966;7.094;2024-02-26T05:04:18;13.90;60.60
11989;DHT22;6054;50.966;7.094;2024-02-26T05:06:45;13.90;60.60
11989;DHT22;6054;50.966;7.094;2024-02-26T05:09:11;13.90;60.70
11989;DHT22;6054;50.966;7.094;2024-02-26T05:11:38;13.90;60.60
11989;DHT22;6054;50.966;7.094;2024-02-26T05:14:07;13.90;60.90
11989;DHT22;6054;50.966;7.094;2024-02-26T05:16:34;13.90;61.20
11989;DHT22;6054;50.966;7.094;2024-02-26T05:19:01;13.90;61.20
11989;DHT22;6054;50.966;7.094;2024-02-26T05:21:28;13.90;61.00
11989;DHT22;6054;50.966;7.094;2024-02-26T05:23:55;13.80;60.60
11989;DHT22;6054;50.966;7.094;2024-02-26T05:26:22;13.80;60.80
11989;DHT22;6054;50.966;7.094;2024-02-26T05:28:49;14.00;61.40
11989;DHT22;6054;50.966;7.094;2024-02-26T05:31:19;13.80;61.40
11989;DHT22;6054;50.966;7.094;2024-02-26T05:33:48;14.00;61.30
11989;DHT22;6054;50.966;7.094;2024-02-26T05:36:19;13.80;61.00
11989;DHT22;6054;50.966;7.094;2024-02-26T05:38:47;13.80;61.60
11989;DHT22;6054;50.966;7.094;2024-02-26T05:41:15;13.80;61.40
11989;DHT22;6054;50.966;7.094;2024-02-26T05:43:41;13.80;61.90
11989;DHT22;6054;50.966;7.094;2024-02-26T05:46:08;13.80;61.50
11989;DHT22;6054;50.966;7.094;2024-02-26T05:48:36;14.00;61.90
11989;DHT22;6054;50.966;7.094;2024-02-26T05:51:04;13.80;61.70
11989;DHT22;6054;50.966;7.094;2024-02-26T05:53:31;13.80;61.70
11989;DHT22;6054;50.966;7.094;2024-02-26T05:55:59;13.80;61.80
11989;DHT22;6054;50.966;7.094;2024-02-26T05:58:26;13.80;61.90
11989;DHT22;6054;50.966;7.094;2024-02-26T06:00:52;13.80;61.60
11989;DHT22;6054;50.966;7.094;2024-02-26T06:03:20;13.80;61.70
11989;DHT22;6054;50.966;7.094;2024-02-26T06:05:49;13.70;61.50
11989;DHT22;6054;50.966;7.094;2024-02-26T06:08:15;13.80;61.80
11989;DHT22;6054;50.966;7.094;2024-02-26T06:10:42;13.70;61.60
11989;DHT22;6054;50.966;7.094;2024-02-26T06:13:09;13.70;61.70
11989;DHT22;6054;50.966;7.094;2024-02-26T06:15:36;13.80;61.70
11989;DHT22;6054;50.966;7.094;2024-02-26T06:18:03;13.70;61.50
11989;DHT22;6054;50.966;7.094;2024-02-26T06:20:30;13.70;61.70
11989;DHT22;6054;50.966;7.094;2024-02-26T06:22:58;13.70;61.20
11989;DHT22;6054;50.966;7.094;2024-02-26T06:25:25;13.70;61.40
11989;DHT22;6054;50.966;7.094;2024-02-26T06:27:52;13.80;61.70
11989;DHT22;6054;50.966;7.094;2024-02-26T06:30:18;13.60;60.60
11989;DHT22;6054;50.966;7.094;2024-02-26T06:32:45;13.60;61.30
11989;DHT22;6054;50.966;7.094;2024-02-26T06:35:12;13.60;61.20
11989;DHT22;6054;50.966;7.094;2024-02-26T06:37:39;13.50;61.40
11989;DHT22;6054;50.966;7.094;2024-02-26T06:40:08;13.50;61.20
11989;DHT22;6054;50.966;7.094;2024-02-26T06:42:35;13.50;61.50
11989;DHT22;6054;50.966;7.094;2024-02-26T06:45:03;13.80;61.50
11989;DHT22;6054;50.966;7.094;2024-02-26T06:47:30;13.50;61.30
11989;DHT22;6054;50.966;7.094;2024-02-26T06:49:57;13.50;61.70
11989;DHT22;6054;50.966;7.094;2024-02-26T06:52:24;13.50;61.60
11989;DHT22;6054;50.966;7.094;2024-02-26T06:54:51;13.50;61.40
11989;DHT22;6054;50.966;7.094;2024-02-26T06:57:21;13.50;61.40
11989;DHT22;6054;50.966;7.094;2024-02-26T06:59:48;13.80;61.90
11989;DHT22;6054;50.966;7.094;2024-02-26T07:02:15;13.50;62.00
11989;DHT22;6054;50.966;7.094;2024-02-26T07:04:42;13.50;61.90
11989;DHT22;6054;50.966;7.094;2024-02-26T07:07:09;13.70;61.60
11989;DHT22;6054;50.966;7.094;2024-02-26T07:09:36;13.60;61.00
11989;DHT22;6054;50.966;7.094;2024-02-26T07:12:04;13.50;61.00
11989;DHT22;6054;50.966;7.094;2024-02-26T07:14:33;13.50;61.50
11989;DHT22;6054;50.966;7.094;2024-02-26T07:17:00;13.60;61.90
11989;DHT22;6054;50.966;7.094;2024-02-26T07:19:26;13.40;61.40
11989;DHT22;6054;50.966;7.094;2024-02-26T07:21:53;13.70;61.70
11989;DHT22;6054;50.966;7.094;2024-02-26T07:24:22;13.40;60.90
11989;DHT22;6054;50.966;7.094;2024-02-26T07:26:50;13.40;61.30
11989;DHT22;6054;50.966;7.094;2024-02-26T07:29:17;13.40;61.50
11989;DHT22;6054;50.966;7.094;2024-02-26T07:31:45;13.40;61.90
11989;DHT22;6054;50.966;7.094;2024-02-26T07:34:12;13.40;61.70
11989;DHT22;6054;50.966;7.094;2024-02-26T07:36:40;13.40;61.30
11989;DHT22;6054;50.966;7.094;2024-02-26T07:39:07;13.40;61.10
11989;DHT22;6054;50.966;7.094;2024-02-26T07:41:36;13.40;61.80
11989;DHT22;6054;50.966;7.094;2024-02-26T07:44:04;13.40;61.80
11989;DHT22;6054;50.966;7.094;2024-02-26T07:46:31;13.40;62.00
11989;DHT22;6054;50.966;7.094;2024-02-26T07:48:59;13.40;61.80
11989;DHT22;6054;50.966;7.094;2024-02-26T07:51:26;13.30;61.60
11989;DHT22;6054;50.966;7.094;2024-02-26T07:53:53;13.50;61.30
11989;DHT22;6054;50.966;7.094;2024-02-26T07:56:21;13.40;62.10
11989;DHT22;6054;50.966;7.094;2024-02-26T07:58:47;13.60;62.20
11989;DHT22;6054;50.966;7.094;2024-02-26T08:01:15;13.40;61.60
11989;DHT22;6054;50.966;7.094;2024-02-26T08:03:42;13.30;61.40
11989;DHT22;6054;50.966;7.094;2024-02-26T08:06:11;13.60;61.90
11989;DHT22;6054;50.966;7.094;2024-02-26T08:08:38;13.60;62.30
11989;DHT22;6054;50.966;7.094;2024-02-26T08:11:06;13.30;62.10
11989;DHT22;6054;50.966;7.094;2024-02-26T08:13:34;13.60;62.50
11989;DHT22;6054;50.966;7.094;2024-02-26T08:16:01;13.30;62.00
11989;DHT22;6054;50.966;7.094;2024-02-26T08:18:28;13.30;62.10
11989;DHT22;6054;50.966;7.094;2024-02-26T08:20:55;13.30;61.60
11989;DHT22;6054;50.966;7.094;2024-02-26T08:23:24;13.30;62.20
11989;DHT22;6054;50.966;7.094;2024-02-26T08:25:51;13.30;62.10
11989;DHT22;6054;50.966;7.094;2024-02-26T08:28:19;13.30;62.10
11989;DHT22;6054;50.966;7.094;2024-02-26T08:30:47;13.20;61.70
11989;DHT22;6054;50.966;7.094;2024-02-26T08:33:14;13.40;62.70
11989;DHT22;6054;50.966;7.094;2024-02-26T08:35:41;13.60;62.50
11989;DHT22;6054;50.966;7.094;2024-02-26T08:38:08;13.30;62.10
11989;DHT22;6054;50.966;7.094;2024-02-26T08:40:36;13.30;62.30
11989;DHT22;6054;50.966;7.094;2024-02-26T08:43:04;13.30;61.50
11989;DHT22;6054;50.966;7.094;2024-02-26T08:45:30;13.60;61.80
11989;DHT22;6054;50.966;7.094;2024-02-26T08:47:57;13.30;62.10
11989;DHT22;6054;50.966;7.094;2024-02-26T08:50:25;13.30;62.10
11989;DHT22;6054;50.966;7.094;2024-02-26T08:52:52;13.30;63.40
11989;DHT22;6054;50.966;7.094;2024-02-26T08:55:19;13.30;62.00
11989;DHT22;6054;50.966;7.094;2024-02-26T08:57:47;13.30;62.30
11989;DHT22;6054;50.966;7.094;2024-02-26T09:00:15;13.30;61.70
11989;DHT22;6054;50.966;7.094;2024-02-26T09:02:43;13.30;62.30
11989;DHT22;6054;50.966;7.094;2024-02-26T09:05:12;13.60;62.80
11989;DHT22;6054;50.966;7.094;2024-02-26T09:07:39;13.20;62.30
11989;DHT22;6054;50.966;7.094;2024-02-26T09:10:07;13.20;61.90
11989;DHT22;6054;50.966;7.094;2024-02-26T09:12:36;13.20;62.70
11989;DHT22;6054;50.966;7.094;2024-02-26T09:15:05;13.20;61.80
11989;DHT22;6054;50.966;7.094;2024-02-26T09:17:32;13.20;63.10
11989;DHT22;6054;50.966;7.094;2024-02-26T09:19:59;13.20;62.10
11989;DHT22;6054;50.966;7.094;2024-02-26T09:22:37;13.20;61.50
11989;DHT22;6054;50.966;7.094;2024-02-26T09:25:05;13.20;62.00
11989;DHT22;6054;50.966;7.094;2024-02-26T09:27:32;13.10;62.40
11989;DHT22;6054;50.966;7.094;2024-02-26T09:30:00;13.50;63.00
11989;DHT22;6054;50.966;7.094;2024-02-26T09:32:29;13.50;62.90
11989;DHT22;6054;50.966;7.094;2024-02-26T09:34:56;13.60;63.10
11989;DHT22;6054;50.966;7.094;2024-02-26T09:37:23;13.10;62.30
11989;DHT22;6054;50.966;7.094;2024-02-26T09:39:50;13.20;62.80
11989;DHT22;6054;50.966;7.094;2024-02-26T09:42:18;13.50;63.40
11989;DHT22;6054;50.966;7.094;2024-02-26T09:44:46;13.60;63.60
11989;DHT22;6054;50.966;7.094;2024-02-26T09:47:14;13.20;62.90
11989;DHT22;6054;50.966;7.094;2024-02-26T09:49:44;13.20;62.90
11989;DHT22;6054;50.966;7.094;2024-02-26T09:52:12;13.20;63.40
11989;DHT22;6054;50.966;7.094;2024-02-26T09:54:42;13.20;63.20
11989;DHT22;6054;50.966;7.094;2024-02-26T09:57:09;13.20;63.50
11989;DHT22;6054;50.966;7.094;2024-02-26T09:59:42;13.20;63.90
11989;DHT22;6054;50.966;7.094;2024-02-26T10:02:12;13.20;63.70
11989;DHT22;6054;50.966;7.094;2024-02-26T10:04:41;13.20;63.80
11989;DHT22;6054;50.966;7.094;2024-02-26T10:07:12;13.20;63.60
11989;DHT22;6054;50.966;7.094;2024-02-26T10:09:39;13.60;63.90
11989;DHT22;6054;50.966;7.094;2024-02-26T10:12:10;13.50;64.10
11989;DHT22;6054;50.966;7.094;2024-02-26T10:14:37;13.30;64.40
11989;DHT22;6054;50.966;7.094;2024-02-26T10:17:06;13.30;63.60
11989;DHT22;6054;50.966;7.094;2024-02-26T10:19:33;13.40;64.40
11989;DHT22;6054;50.966;7.094;2024-02-26T10:22:01;13.40;63.40
11989;DHT22;6054;50.966;7.094;2024-02-26T10:24:30;13.40;63.80
11989;DHT22;6054;50.966;7.094;2024-02-26T10:26:57;13.40;63.80
11989;DHT22;6054;50.966;7.094;2024-02-26T10:29:25;13.60;64.20
11989;DHT22;6054;50.966;7.094;2024-02-26T10:31:53;13.70;64.20
11989;DHT22;6054;50.966;7.094;2024-02-26T10:34:20;13.40;63.90
11989;DHT22;6054;50.966;7.094;2024-02-26T10:36:47;13.40;63.90
11989;DHT22;6054;50.966;7.094;2024-02-26T10:39:14;13.40;63.80
11989;DHT22;6054;50.966;7.094;2024-02-26T10:41:43;13.40;64.00
11989;DHT22;6054;50.966;7.094;2024-02-26T10:44:11;13.50;63.80
11989;DHT22;6054;50.966;7.094;2024-02-26T10:46:38;13.50;64.40
11989;DHT22;6054;50.966;7.094;2024-02-26T10:49:13;13.50;64.40
11989;DHT22;6054;50.966;7.094;2024-02-26T10:51:44;13.50;64.90
11989;DHT22;6054;50.966;7.094;2024-02-26T10:54:14;13.50;64.60
11989;DHT22;6054;50.966;7.094;2024-02-26T10:56:46;13.60;64.50
11989;DHT22;6054;50.966;7.094;2024-02-26T10:59:16;13.70;64.70
11989;DHT22;6054;50.966;7.094;2024-02-26T11:01:47;13.60;64.40
11989;DHT22;6054;50.966;7.094;2024-02-26T11:04:16;13.60;64.80
11989;DHT22;6054;50.966;7.094;2024-02-26T11:06:43;13.60;64.20
11989;DHT22;6054;50.966;7.094;2024-02-26T11:09:12;13.60;64.90
11989;DHT22;6054;50.966;7.094;2024-02-26T11:11:41;13.70;65.30
11989;DHT22;6054;50.966;7.094;2024-02-26T11:14:11;13.70;65.30
11989;DHT22;6054;50.966;7.094;2024-02-26T11:16:39;13.80;65.30
11989;DHT22;6054;50.966;7.094;2024-02-26T11:19:09;13.70;64.50
11989;DHT22;6054;50.966;7.094;2024-02-26T11:21:36;13.80;64.90
11989;DHT22;6054;50.966;7.094;2024-02-26T11:24:08;13.80;64.80
11989;DHT22;6054;50.966;7.094;2024-02-26T11:26:39;14.30;65.30
11989;DHT22;6054;50.966;7.094;2024-02-26T11:29:10;13.90;65.40
11989;DHT22;6054;50.966;7.094;2024-02-26T11:31:38;13.90;65.30
11989;DHT22;6054;50.966;7.094;2024-02-26T11:34:07;13.90;64.80
11989;DHT22;6054;50.966;7.094;2024-02-26T11:36:34;13.90;64.40
11989;DHT22;6054;50.966;7.094;2024-02-26T11:39:04;13.90;65.10
11989;DHT22;6054;50.966;7.094;2024-02-26T11:41:31;14.00;65.00
11989;DHT22;6054;50.966;7.094;2024-02-26T11:43:59;14.00;65.90
11989;DHT22;6054;50.966;7.094;2024-02-26T11:46:28;14.00;65.50
11989;DHT22;6054;50.966;7.094;2024-02-26T11:48:58;14.40;66.10
11989;DHT22;6054;50.966;7.094;2024-02-26T11:51:26;14.40;65.00
11989;DHT22;6054;50.966;7.094;2024-02-26T11:53:53;14.00;64.50
11989;DHT22;6054;50.966;7.094;2024-02-26T11:56:23;14.00;65.40
11989;DHT22;6054;50.966;7.094;2024-02-26T11:58:54;14.10;65.80
11989;DHT22;6054;50.966;7.094;2024-02-26T12:01:44;14.20;65.70
11989;DHT22;6054;50.966;7.094;2024-02-26T12:04:15;14.20;65.90
11989;DHT22;6054;50.966;7.094;2024-02-26T12:06:47;14.20;65.80
11989;DHT22;6054;50.966;7.094;2024-02-26T12:11:55;14.40;66.20
11989;DHT22;6054;50.966;7.094;2024-02-26T12:14:25;14.30;65.20
11989;DHT22;6054;50.966;7.094;2024-02-26T12:16:55;14.30;65.90
11989;DHT22;6054;50.966;7.094;2024-02-26T12:19:23;14.40;65.50
11989;DHT22;6054;50.966;7.094;2024-02-26T12:21:52;14.40;65.40
11989;DHT22;6054;50.966;7.094;2024-02-26T12:24:20;14.40;66.00
11989;DHT22;6054;50.966;7.094;2024-02-26T12:26:47;14.50;65.70
11989;DHT22;6054;50.966;7.094;2024-02-26T12:29:14;14.50;65.90
11989;DHT22;6054;50.966;7.094;2024-02-26T12:31:41;14.60;66.00
11989;DHT22;6054;50.966;7.094;2024-02-26T12:34:09;14.60;66.10
11989;DHT22;6054;50.966;7.094;2024-02-26T12:36:36;14.60;65.70
11989;DHT22;6054;50.966;7.094;2024-02-26T12:39:04;14.60;65.90
11989;DHT22;6054;50.966;7.094;2024-02-26T12:41:32;14.70;65.20
11989;DHT22;6054;50.966;7.094;2024-02-26T12:43:59;14.70;64.60
11989;DHT22;6054;50.966;7.094;2024-02-26T12:46:26;14.60;64.80
11989;DHT22;6054;50.966;7.094;2024-02-26T12:48:55;14.60;65.30
11989;DHT22;6054;50.966;7.094;2024-02-26T12:51:25;14.70;65.80
11989;DHT22;6054;50.966;7.094;2024-02-26T12:53:53;14.70;65.60
11989;DHT22;6054;50.966;7.094;2024-02-26T12:56:21;14.70;65.60
11989;DHT22;6054;50.966;7.094;2024-02-26T12:58:48;14.70;65.70
11989;DHT22;6054;50.966;7.094;2024-02-26T13:01:19;14.80;66.30
11989;DHT22;6054;50.966;7.094;2024-02-26T13:03:48;14.80;66.00
11989;DHT22;6054;50.966;7.094;2024-02-26T13:06:16;14.80;66.00
11989;DHT22;6054;50.966;7.094;2024-02-26T13:08:45;14.80;66.00
11989;DHT22;6054;50.966;7.094;2024-02-26T13:11:12;14.80;65.80
11989;DHT22;6054;50.966;7.094;2024-02-26T13:13:39;14.90;65.90
11989;DHT22;6054;50.966;7.094;2024-02-26T13:16:08;14.90;65.60
11989;DHT22;6054;50.966;7.094;2024-02-26T13:18:35;14.90;65.20
11989;DHT22;6054;50.966;7.094;2024-02-26T13:21:13;14.90;65.20
11989;DHT22;6054;50.966;7.094;2024-02-26T13:23:41;15.00;66.20
11989;DHT22;6054;50.966;7.094;2024-02-26T13:26:12;15.00;66.20
11989;DHT22;6054;50.966;7.094;2024-02-26T13:28:40;15.00;66.30
11989;DHT22;6054;50.966;7.094;2024-02-26T13:31:08;15.00;65.80
11989;DHT22;6054;50.966;7.094;2024-02-26T13:33:35;15.00;65.00
11989;DHT22;6054;50.966;7.094;2024-02-26T13:36:03;15.10;65.70
11989;DHT22;6054;50.966;7.094;2024-02-26T13:38:30;15.10;64.90
11989;DHT22;6054;50.966;7.094;2024-02-26T13:40:57;15.00;64.50
11989;DHT22;6054;50.966;7.094;2024-02-26T13:43:25;15.10;65.40
11989;DHT22;6054;50.966;7.094;2024-02-26T13:45:52;15.00;65.00
11989;DHT22;6054;50.966;7.094;2024-02-26T13:48:19;15.00;65.20
11989;DHT22;6054;50.966;7.094;2024-02-26T13:50:46;15.10;65.70
11989;DHT22;6054;50.966;7.094;2024-02-26T13:53:13;15.10;65.90
11989;DHT22;6054;50.966;7.094;2024-02-26T13:55:40;15.10;65.20
11989;DHT22;6054;50.966;7.094;2024-02-26T13:58:11;15.10;65.80
11989;DHT22;6054;50.966;7.094;2024-02-26T14:00:40;15.10;65.30
11989;DHT22;6054;50.966;7.094;2024-02-26T14:03:07;15.10;65.40
11989;DHT22;6054;50.966;7.094;2024-02-26T14:05:34;15.10;64.80
11989;DHT22;6054;50.966;7.094;2024-02-26T14:08:01;15.10;65.30
11989;DHT22;6054;50.966;7.094;2024-02-26T14:10:29;15.10;64.60
11989;DHT22;6054;50.966;7.094;2024-02-26T14:12:57;15.10;65.00
11989;DHT22;6054;50.966;7.094;2024-02-26T14:15:24;15.10;65.30
11989;DHT22;6054;50.966;7.094;2024-02-26T14:17:52;15.10;65.70
11989;DHT22;6054;50.966;7.094;2024-02-26T14:20:21;15.10;65.70
11989;DHT22;6054;50.966;7.094;2024-02-26T14:22:48;15.10;65.20
11989;DHT22;6054;50.966;7.094;2024-02-26T14:25:15;15.20;65.40
11989;DHT22;6054;50.966;7.094;2024-02-26T14:27:42;15.20;65.30
11989;DHT22;6054;50.966;7.094;2024-02-26T14:30:10;15.10;65.30
11989;DHT22;6054;50.966;7.094;2024-02-26T14:32:37;15.20;65.30
11989;DHT22;6054;50.966;7.094;2024-02-26T14:35:07;15.20;65.20
11989;DHT22;6054;50.966;7.094;2024-02-26T14:37:34;15.20;65.60
11989;DHT22;6054;50.966;7.094;2024-02-26T14:40:01;15.20;65.10
11989;DHT22;6054;50.966;7.094;2024-02-26T14:42:28;15.20;65.70
11989;DHT22;6054;50.966;7.094;2024-02-26T14:44:55;15.20;64.70
11989;DHT22;6054;50.966;7.094;2024-02-26T14:47:22;15.20;64.80
11989;DHT22;6054;50.966;7.094;2024-02-26T14:49:49;15.20;64.90
11989;DHT22;6054;50.966;7.094;2024-02-26T14:52:18;15.20;65.00
11989;DHT22;6054;50.966;7.094;2024-02-26T14:54:45;15.30;65.60
11989;DHT22;6054;50.966;7.094;2024-02-26T14:57:12;15.30;65.40
11989;DHT22;6054;50.966;7.094;2024-02-26T14:59:39;15.30;65.70
11989;DHT22;6054;50.966;7.094;2024-02-26T15:02:06;15.30;65.60
11989;DHT22;6054;50.966;7.094;2024-02-26T15:04:35;15.40;66.20
11989;DHT22;6054;50.966;7.094;2024-02-26T15:07:02;15.40;65.70
11989;DHT22;6054;50.966;7.094;2024-02-26T15:09:30;15.40;65.30
11989;DHT22;6054;50.966;7.094;2024-02-26T15:11:57;15.40;65.70
11989;DHT22;6054;50.966;7.094;2024-02-26T15:14:24;15.70;66.30
11989;DHT22;6054;50.966;7.094;2024-02-26T15:16:52;15.50;66.10
11989;DHT22;6054;50.966;7.094;2024-02-26T15:19:19;15.50;65.70
11989;DHT22;6054;50.966;7.094;2024-02-26T15:21:47;15.50;65.80
11989;DHT22;6054;50.966;7.094;2024-02-26T15:24:14;15.80;66.10
11989;DHT22;6054;50.966;7.094;2024-02-26T15:26:44;15.70;66.10
11989;DHT22;6054;50.966;7.094;2024-02-26T15:29:11;15.60;65.90
11989;DHT22;6054;50.966;7.094;2024-02-26T15:31:38;15.90;66.20
11989;DHT22;6054;50.966;7.094;2024-02-26T15:34:05;15.60;66.00
11989;DHT22;6054;50.966;7.094;2024-02-26T15:36:31;15.60;65.90
11989;DHT22;6054;50.966;7.094;2024-02-26T15:38:58;15.60;65.50
11989;DHT22;6054;50.966;7.094;2024-02-26T15:41:25;15.90;66.00
11989;DHT22;6054;50.966;7.094;2024-02-26T15:43:53;15.60;65.80
11989;DHT22;6054;50.966;7.094;2024-02-26T15:46:20;15.60;65.50
11989;DHT22;6054;50.966;7.094;2024-02-26T15:48:47;15.60;66.30
11989;DHT22;6054;50.966;7.094;2024-02-26T15:51:21;15.60;65.80